createdAt,value
2019-04-20T00:01:21.682Z,17.58
2019-04-20T00:03:47.321Z,17.56
2019-04-20T00:06:17.246Z,17.55
2019-04-20T00:08:46.233Z,17.55
2019-04-20T00:11:24.835Z,17.54
2019-04-20T00:13:54.954Z,17.54
2019-04-20T00:16:16.837Z,17.53
2019-04-20T00:18:48.845Z,17.51
2019-04-20T00:21:34.448Z,17.49
2019-04-20T00:24:13.376Z,17.45
2019-04-20T00:27:08.605Z,17.37
2019-04-20T00:29:27.732Z,17.30
2019-04-20T00:31:49.104Z,17.22
2019-04-20T00:34:17.340Z,17.13
2019-04-20T00:36:39.235Z,17.03
2019-04-20T00:39:11.276Z,16.98
2019-04-20T00:41:43.827Z,16.98
2019-04-20T00:44:13.269Z,16.98
2019-04-20T00:46:58.729Z,16.97
2019-04-20T00:49:20.663Z,16.98
2019-04-20T00:52:05.271Z,16.97
2019-04-20T00:54:07.887Z,16.96
2019-04-20T00:56:37.092Z,16.96
2019-04-20T00:59:17.204Z,16.91
2019-04-20T01:01:52.129Z,16.88
2019-04-20T01:04:23.839Z,16.84
2019-04-20T01:07:05.545Z,16.81
2019-04-20T01:09:43.938Z,16.75
2019-04-20T01:12:19.277Z,16.68
2019-04-20T01:14:48.469Z,16.63
2019-04-20T01:17:17.896Z,16.58
2019-04-20T01:19:48.866Z,16.57
2019-04-20T01:22:20.109Z,16.53
2019-04-20T01:24:48.315Z,16.49
2019-04-20T01:27:28.350Z,16.44
2019-04-20T01:29:50.960Z,16.41
2019-04-20T01:32:26.706Z,16.36
2019-04-20T01:34:57.636Z,16.32
2019-04-20T01:37:29.788Z,16.27
2019-04-20T01:39:52.059Z,16.23
2019-04-20T01:42:17.253Z,16.20
2019-04-20T01:44:49.167Z,16.15
2019-04-20T01:47:15.350Z,16.11
2019-04-20T01:49:47.726Z,16.07
2019-04-20T01:52:20.102Z,16.02
2019-04-20T01:55:22.978Z,15.97
2019-04-20T01:58:00.447Z,15.93
2019-04-20T02:00:44.990Z,15.87
2019-04-20T02:03:36.963Z,15.81
2019-04-20T02:06:06.377Z,15.76
2019-04-20T02:08:31.423Z,15.71
2019-04-20T02:11:04.349Z,15.67
2019-04-20T02:13:40.241Z,15.63
2019-04-20T02:16:11.425Z,15.57
2019-04-20T02:18:44.307Z,15.50
2019-04-20T02:21:22.073Z,15.46
2019-04-20T02:23:42.094Z,15.41
2019-04-20T02:26:04.983Z,15.37
2019-04-20T02:29:00.704Z,15.32
2019-04-20T02:31:45.685Z,15.27
2019-04-20T02:34:19.861Z,15.19
2019-04-20T02:36:58.825Z,15.12
2019-04-20T02:39:30.612Z,15.03
2019-04-20T02:41:53.365Z,14.95
2019-04-20T02:44:24.157Z,14.87
2019-04-20T02:46:55.842Z,14.82
2019-04-20T02:49:29.718Z,14.73
2019-04-20T02:59:51.238Z,14.46
2019-04-20T03:01:43.471Z,14.42
2019-04-20T03:03:55.987Z,14.37
2019-04-20T03:06:35.080Z,14.34
2019-04-20T03:09:15.222Z,14.31
2019-04-20T03:11:56.753Z,14.27
2019-04-20T03:14:09.556Z,14.24
2019-04-20T03:16:38.556Z,14.21
2019-04-20T03:19:08.065Z,14.18
2019-04-20T03:21:47.896Z,14.17
2019-04-20T03:24:18.891Z,14.16
2019-04-20T03:26:42.014Z,14.15
2019-04-20T03:29:37.055Z,14.11
2019-04-20T03:32:40.239Z,14.10
2019-04-20T03:37:13.154Z,14.09
2019-04-20T03:39:35.989Z,14.05
2019-04-20T03:41:54.899Z,14.03
2019-04-20T03:44:25.569Z,14.02
2019-04-20T03:46:57.486Z,14.00
2019-04-20T03:49:49.032Z,13.98
2019-04-20T03:52:28.786Z,13.99
2019-04-20T03:55:16.466Z,13.97
2019-04-20T03:58:10.085Z,13.94
2019-04-20T04:01:03.839Z,13.91
2019-04-20T04:03:56.671Z,13.88
2019-04-20T04:06:11.765Z,13.84
2019-04-20T04:08:34.460Z,13.81
2019-04-20T04:11:18.877Z,13.78
2019-04-20T04:13:27.037Z,13.75
2019-04-20T04:16:01.183Z,13.73
2019-04-20T04:18:31.868Z,13.69
2019-04-20T04:21:02.922Z,13.65
2019-04-20T04:23:40.439Z,13.62
2019-04-20T04:26:14.994Z,13.59
2019-04-20T04:28:40.998Z,13.54
2019-04-20T04:31:13.390Z,13.51
2019-04-20T04:33:55.949Z,13.47
2019-04-20T04:36:12.997Z,13.43
2019-04-20T04:38:48.701Z,13.36
2019-04-20T04:41:18.183Z,13.29
2019-04-20T04:43:44.327Z,13.25
2019-04-20T04:45:59.562Z,13.21
2019-04-20T04:48:34.452Z,13.17
2019-04-20T04:51:03.207Z,13.17
2019-04-20T04:53:42.975Z,13.15
2019-04-20T04:56:05.742Z,13.11
2019-04-20T04:58:29.699Z,13.12
2019-04-20T05:01:06.551Z,13.12
2019-04-20T05:03:45.312Z,13.13
2019-04-20T05:06:23.168Z,13.16
2019-04-20T05:08:43.771Z,13.17
2019-04-20T05:11:06.914Z,13.20
2019-04-20T05:13:41.903Z,13.22
2019-04-20T05:16:19.212Z,13.28
2019-04-20T05:18:59.267Z,13.32
2019-04-20T05:21:44.596Z,13.37
2019-04-20T05:24:33.813Z,13.43
2019-04-20T05:27:30.075Z,13.48
2019-04-20T05:29:41.355Z,13.55
2019-04-20T05:32:15.924Z,13.63
2019-04-20T05:35:05.100Z,13.70
2019-04-20T05:37:33.282Z,13.75
2019-04-20T05:40:04.412Z,13.80
2019-04-20T05:42:31.243Z,13.87
2019-04-20T05:44:57.247Z,13.92
2019-04-20T05:47:27.039Z,13.99
2019-04-20T05:49:53.790Z,14.04
2019-04-20T05:52:53.907Z,14.09
2019-04-20T05:55:03.021Z,14.15
2019-04-20T05:57:31.938Z,14.25
2019-04-20T06:00:12.666Z,14.35
2019-04-20T06:02:34.761Z,14.42
2019-04-20T06:05:06.959Z,14.54
2019-04-20T06:07:31.166Z,14.61
2019-04-20T06:10:07.801Z,14.69
2019-04-20T06:12:33.137Z,14.80
2019-04-20T06:15:21.094Z,14.90
2019-04-20T06:18:02.390Z,14.99
2019-04-20T06:20:45.358Z,15.12
2019-04-20T06:23:34.254Z,15.24
2019-04-20T06:26:13.429Z,15.38
2019-04-20T06:28:28.377Z,15.53
2019-04-20T06:30:52.639Z,15.68
2019-04-20T06:34:31.084Z,15.85
2019-04-20T06:36:51.175Z,16.03
2019-04-20T06:39:20.016Z,16.25
2019-04-20T06:42:07.755Z,16.43
2019-04-20T06:44:23.163Z,16.62
2019-04-20T06:46:52.473Z,16.80
2019-04-20T06:49:22.876Z,16.99
2019-04-20T06:51:55.386Z,17.18
2019-04-20T06:54:20.034Z,17.35
2019-04-20T06:57:01.723Z,17.53
2019-04-20T06:59:38.733Z,17.71
2019-04-20T07:04:49.999Z,18.08
2019-04-20T07:07:08.611Z,18.28
2019-04-20T07:09:42.114Z,18.47
2019-04-20T07:11:59.576Z,18.67
2019-04-20T07:14:24.203Z,18.86
2019-04-20T07:17:26.938Z,19.06
2019-04-20T07:19:55.903Z,19.24
2019-04-20T07:22:39.403Z,19.44
2019-04-20T07:25:01.177Z,19.63
2019-04-20T07:27:36.584Z,19.83
2019-04-20T07:30:03.949Z,20.02
2019-04-20T07:32:38.929Z,20.23
2019-04-20T07:35:01.353Z,20.43
2019-04-20T07:38:04.640Z,20.66
2019-04-20T07:40:13.535Z,20.90
2019-04-20T07:42:43.695Z,21.15
2019-04-20T07:45:07.463Z,21.36
2019-04-20T07:47:44.086Z,21.60
2019-04-20T07:50:04.835Z,21.85
2019-04-20T07:52:24.364Z,22.03
2019-04-20T07:55:32.001Z,22.23
2019-04-20T07:57:34.034Z,22.48
2019-04-20T08:00:04.864Z,22.69
2019-04-20T08:02:58.654Z,22.92
2019-04-20T08:05:36.723Z,23.15
2019-04-20T08:08:08.318Z,23.42
2019-04-20T08:10:47.391Z,23.71
2019-04-20T08:13:21.484Z,23.94
2019-04-20T08:18:16.085Z,24.43
2019-04-20T08:20:46.275Z,24.61
2019-04-20T08:23:12.986Z,24.79
2019-04-20T08:25:36.152Z,24.95
2019-04-20T08:28:18.860Z,25.19
2019-04-20T08:31:25.257Z,25.46
2019-04-20T08:34:12.161Z,25.81
2019-04-20T08:36:33.217Z,26.12
2019-04-20T08:41:25.045Z,26.55
2019-04-20T08:44:18.649Z,26.74
2019-04-20T08:46:38.351Z,26.94
2019-04-20T08:49:05.048Z,27.15
2019-04-20T08:51:46.305Z,27.35
2019-04-20T08:54:02.349Z,27.52
2019-04-20T08:56:27.269Z,27.70
2019-04-20T08:58:43.448Z,27.86
2019-04-20T09:01:18.438Z,28.07
2019-04-20T09:03:53.133Z,28.23
2019-04-20T09:06:26.358Z,28.38
2019-04-20T09:08:50.339Z,28.53
2019-04-20T09:11:31.156Z,28.70
2019-04-20T09:13:47.710Z,28.94
2019-04-20T09:16:13.035Z,29.18
2019-04-20T09:18:51.472Z,29.43
2019-04-20T09:21:25.288Z,29.64
2019-04-20T09:24:04.545Z,29.87
2019-04-20T09:26:34.277Z,30.10
2019-04-20T09:29:02.825Z,30.34
2019-04-20T09:31:44.801Z,30.55
2019-04-20T09:34:37.028Z,30.74
2019-04-20T09:37:21.961Z,30.95
2019-04-20T09:40:06.180Z,31.21
2019-04-20T09:42:30.360Z,31.42
2019-04-20T09:45:02.490Z,31.57
2019-04-20T09:47:36.813Z,31.71
2019-04-20T09:50:18.732Z,31.82
2019-04-20T09:52:46.513Z,31.91
2019-04-20T09:55:10.764Z,31.96
2019-04-20T09:57:46.692Z,32.06
2019-04-20T10:00:16.770Z,32.18
2019-04-20T10:02:32.558Z,32.39
2019-04-20T10:04:59.643Z,32.63
2019-04-20T10:07:32.586Z,32.86
2019-04-20T10:09:58.018Z,33.12
2019-04-20T10:12:26.113Z,33.37
2019-04-20T10:14:57.625Z,33.62
2019-04-20T10:17:27.055Z,33.84
2019-04-20T10:19:54.066Z,34.00
2019-04-20T10:22:22.569Z,34.11
2019-04-20T10:24:52.199Z,34.29
2019-04-20T10:27:20.999Z,34.49
2019-04-20T10:29:49.342Z,34.67
2019-04-20T10:32:17.998Z,34.86
2019-04-20T10:34:46.494Z,34.96
2019-04-20T10:37:24.174Z,35.01
2019-04-20T10:39:52.423Z,35.04
2019-04-20T10:42:20.570Z,35.12
2019-04-20T10:44:48.558Z,35.20
2019-04-20T10:47:16.887Z,35.27
2019-04-20T10:49:45.091Z,35.29
2019-04-20T10:52:13.744Z,35.31
2019-04-20T10:54:42.699Z,35.36
2019-04-20T10:57:10.800Z,35.45
2019-04-20T10:59:39.452Z,35.54
2019-04-20T11:02:09.788Z,35.68
2019-04-20T11:04:38.786Z,35.83
2019-04-20T11:07:08.209Z,36.02
2019-04-20T11:09:36.659Z,36.21
2019-04-20T11:12:06.268Z,36.39
2019-04-20T11:14:37.245Z,36.59
2019-04-20T11:17:04.499Z,36.78
2019-04-20T11:19:33.604Z,36.88
2019-04-20T11:22:02.229Z,36.98
2019-04-20T11:24:30.315Z,37.06
2019-04-20T11:26:58.626Z,37.16
2019-04-20T11:29:26.658Z,37.30
2019-04-20T11:31:56.175Z,37.43
2019-04-20T11:34:28.658Z,37.60
2019-04-20T11:36:55.045Z,37.70
2019-04-20T11:39:23.142Z,37.82
2019-04-20T11:41:51.746Z,37.89
2019-04-20T11:44:20.080Z,38.00
2019-04-20T11:46:48.392Z,38.11
2019-04-20T11:49:17.469Z,38.20
2019-04-20T11:51:45.926Z,38.30
2019-04-20T11:54:14.592Z,38.33
2019-04-20T11:56:46.840Z,38.36
2019-04-20T11:59:12.773Z,38.40
2019-04-20T12:02:04.100Z,38.46
2019-04-20T12:04:44.182Z,38.53
2019-04-20T12:07:08.748Z,38.64
2019-04-20T12:09:37.704Z,38.66
2019-04-20T12:12:15.530Z,38.67
2019-04-20T12:14:36.759Z,38.71
2019-04-20T12:17:05.894Z,38.82
2019-04-20T12:19:36.213Z,38.89
2019-04-20T12:22:04.000Z,38.95
2019-04-20T12:24:33.214Z,39.02
2019-04-20T12:27:02.661Z,39.08
2019-04-20T12:29:32.087Z,39.07
2019-04-20T12:32:02.962Z,39.04
2019-04-20T12:34:30.731Z,39.05
2019-04-20T12:36:58.806Z,39.05
2019-04-20T12:39:27.068Z,39.09
2019-04-20T12:41:58.851Z,39.10
2019-04-20T12:44:25.788Z,39.10
2019-04-20T12:46:54.023Z,39.03
2019-04-20T12:49:23.459Z,38.93
2019-04-20T12:51:57.079Z,38.85
2019-04-20T12:54:22.780Z,38.82
2019-04-20T12:56:50.893Z,38.80
2019-04-20T12:59:18.957Z,38.79
2019-04-20T13:01:47.152Z,38.77
2019-04-20T13:04:16.462Z,38.66
2019-04-20T13:06:45.146Z,38.55
2019-04-20T13:09:14.474Z,38.41
2019-04-20T13:12:11.694Z,38.29
2019-04-20T13:15:42.468Z,38.19
2019-04-20T13:18:11.581Z,38.12
2019-04-20T13:20:39.802Z,38.12
2019-04-20T13:23:09.122Z,38.13
2019-04-20T13:25:39.185Z,38.11
2019-04-20T13:28:07.422Z,38.12
2019-04-20T13:30:35.592Z,38.11
2019-04-20T13:33:03.991Z,38.08
2019-04-20T13:35:34.277Z,37.98
2019-04-20T13:38:02.544Z,37.99
2019-04-20T13:40:31.214Z,38.04
2019-04-20T13:42:59.594Z,38.02
2019-04-20T13:45:28.838Z,37.87
2019-04-20T13:47:57.078Z,37.70
2019-04-20T13:50:26.258Z,37.59
2019-04-20T13:52:54.474Z,37.48
2019-04-20T13:55:24.949Z,37.39
2019-04-20T13:58:04.227Z,37.32
2019-04-20T14:00:58.961Z,37.24
2019-04-20T14:03:30.018Z,37.20
2019-04-20T14:05:58.480Z,37.11
2019-04-20T14:08:27.385Z,37.07
2019-04-20T14:10:55.752Z,37.06
2019-04-20T14:13:29.292Z,37.07
2019-04-20T14:15:55.449Z,37.06
2019-04-20T14:18:24.942Z,36.99
2019-04-20T14:20:54.105Z,36.92
2019-04-20T14:23:23.217Z,36.88
2019-04-20T14:25:52.155Z,36.79
2019-04-20T14:28:20.952Z,36.78
2019-04-20T14:30:49.933Z,36.70
2019-04-20T14:33:18.937Z,36.64
2019-04-20T14:35:48.353Z,36.51
2019-04-20T14:38:17.641Z,36.31
2019-04-20T14:40:46.371Z,36.10
2019-04-20T14:43:15.111Z,35.92
2019-04-20T14:45:44.769Z,35.77
2019-04-20T14:48:13.051Z,35.62
2019-04-20T14:50:41.416Z,35.42
2019-04-20T14:53:09.598Z,35.21
2019-04-20T14:55:37.705Z,35.04
2019-04-20T14:58:26.956Z,34.86
2019-04-20T15:01:00.578Z,34.61
2019-04-20T15:03:36.893Z,34.39
2019-04-20T15:06:05.410Z,34.24
2019-04-20T15:08:34.861Z,34.06
2019-04-20T15:11:03.037Z,33.90
2019-04-20T15:13:31.034Z,33.70
2019-04-20T15:15:59.179Z,33.49
2019-04-20T15:18:31.739Z,33.18
2019-04-20T15:21:01.654Z,32.95
2019-04-20T15:23:29.838Z,32.67
2019-04-20T15:25:58.222Z,32.43
2019-04-20T15:28:26.402Z,32.32
2019-04-20T15:30:54.491Z,32.22
2019-04-20T15:33:23.489Z,32.10
2019-04-20T15:35:52.687Z,31.97
2019-04-20T15:38:21.094Z,31.88
2019-04-20T15:40:49.402Z,31.73
2019-04-20T15:43:20.903Z,31.64
2019-04-20T15:45:47.591Z,31.46
2019-04-20T15:48:16.296Z,31.34
2019-04-20T15:50:45.670Z,31.21
2019-04-20T15:53:13.814Z,31.12
2019-04-20T15:55:43.870Z,31.03
2019-04-20T15:58:12.368Z,30.95
2019-04-20T16:00:40.613Z,30.85
2019-04-20T16:03:12.904Z,30.74
2019-04-20T16:06:07.462Z,30.65
2019-04-20T16:08:38.721Z,30.53
2019-04-20T16:11:07.330Z,30.42
2019-04-20T16:13:39.575Z,30.30
2019-04-20T16:16:05.819Z,30.17
2019-04-20T16:18:34.944Z,30.06
2019-04-20T16:21:07.885Z,29.97
2019-04-20T16:23:58.934Z,29.87
2019-04-20T16:26:35.729Z,29.76
2019-04-20T16:29:05.835Z,29.64
2019-04-20T16:31:34.015Z,29.57
2019-04-20T16:34:03.226Z,29.49
2019-04-20T16:36:32.467Z,29.42
2019-04-20T16:39:01.696Z,29.37
2019-04-20T16:41:32.637Z,29.33
2019-04-20T16:44:00.789Z,29.28
2019-04-20T16:46:30.049Z,29.22
2019-04-20T16:48:58.982Z,29.16
2019-04-20T16:51:27.201Z,29.08
2019-04-20T16:53:56.160Z,28.98
2019-04-20T16:56:24.565Z,28.90
2019-04-20T16:58:54.645Z,28.85
2019-04-20T17:01:23.467Z,28.80
2019-04-20T17:04:01.058Z,28.71
2019-04-20T17:06:22.323Z,28.65
2019-04-20T17:08:51.335Z,28.60
2019-04-20T17:11:19.483Z,28.55
2019-04-20T17:13:50.046Z,28.51
2019-04-20T17:16:17.622Z,28.47
2019-04-20T17:18:49.969Z,28.40
2019-04-20T17:21:22.924Z,28.37
2019-04-20T17:23:49.144Z,28.33
2019-04-20T17:26:29.460Z,28.28
2019-04-20T17:29:19.979Z,28.23
2019-04-20T17:32:13.714Z,28.17
2019-04-20T17:34:58.185Z,28.13
2019-04-20T17:37:12.880Z,28.08
2019-04-20T17:40:05.297Z,28.03
2019-04-20T17:42:23.749Z,27.96
2019-04-20T17:44:55.581Z,27.89
2019-04-20T17:47:31.323Z,27.80
2019-04-20T17:50:05.243Z,27.71
2019-04-20T17:52:37.323Z,27.62
2019-04-20T17:54:55.843Z,27.52
2019-04-20T17:57:25.381Z,27.44
2019-04-20T18:00:07.052Z,27.34
2019-04-20T18:03:00.642Z,27.24
2019-04-20T18:05:39.491Z,27.14
2019-04-20T18:08:10.279Z,27.04
2019-04-20T18:10:36.743Z,26.94
2019-04-20T18:12:53.056Z,26.87
2019-04-20T18:15:36.845Z,26.79
2019-04-20T18:18:24.520Z,26.72
2019-04-20T18:20:59.006Z,26.66
2019-04-20T18:23:33.736Z,26.56
2019-04-20T18:26:18.629Z,26.46
2019-04-20T18:28:51.600Z,26.39
2019-04-20T18:31:15.492Z,26.30
2019-04-20T18:33:44.493Z,26.22
2019-04-20T18:36:20.566Z,26.13
2019-04-20T18:38:52.985Z,26.05
2019-04-20T18:41:25.687Z,25.94
2019-04-20T18:43:48.212Z,25.85
2019-04-20T18:46:29.336Z,25.76
2019-04-20T18:49:03.285Z,25.69
2019-04-20T18:51:12.254Z,25.61
2019-04-20T18:53:43.334Z,25.53
2019-04-20T18:56:10.269Z,25.46
2019-04-20T18:58:38.334Z,25.38
2019-04-20T19:01:07.542Z,25.28
2019-04-20T19:03:40.654Z,25.21
2019-04-20T19:06:07.210Z,25.14
2019-04-20T19:08:40.504Z,25.05
2019-04-20T19:11:09.755Z,24.96
2019-04-20T19:13:44.608Z,24.88
2019-04-20T19:16:50.883Z,24.79
2019-04-20T19:19:37.507Z,24.72
2019-04-20T19:21:58.461Z,24.60
2019-04-20T19:24:29.698Z,24.50
2019-04-20T19:27:02.949Z,24.42
2019-04-20T19:29:33.011Z,24.35
2019-04-20T19:32:15.851Z,24.28
2019-04-20T19:34:43.197Z,24.21
2019-04-20T19:37:06.199Z,24.14
2019-04-20T19:39:43.691Z,24.08
2019-04-20T19:42:11.739Z,24.00
2019-04-20T19:44:49.540Z,23.92
2019-04-20T19:47:15.678Z,23.84
2019-04-20T19:49:37.082Z,23.76
2019-04-20T19:52:27.161Z,23.68
2019-04-20T19:54:46.503Z,23.59
2019-04-20T19:57:16.148Z,23.51
2019-04-20T19:59:35.438Z,23.43
2019-04-20T20:01:58.015Z,23.34
2019-04-20T20:04:26.054Z,23.26
2019-04-20T20:07:01.470Z,23.15
2019-04-20T20:09:24.170Z,23.03
2019-04-20T20:11:56.129Z,22.94
2019-04-20T20:14:30.619Z,22.84
2019-04-20T20:17:08.681Z,22.76
2019-04-20T20:19:37.191Z,22.66
2019-04-20T20:22:06.717Z,22.56
2019-04-20T20:24:23.228Z,22.49
2019-04-20T20:26:59.865Z,22.37
2019-04-20T20:29:31.566Z,22.27
2019-04-20T20:32:08.482Z,22.18
2019-04-20T20:34:28.724Z,22.09
2019-04-20T20:36:54.584Z,22.01
2019-04-20T20:39:27.763Z,21.93
2019-04-20T20:42:04.978Z,21.86
2019-04-20T20:44:31.843Z,21.76
2019-04-20T20:47:03.115Z,21.69
2019-04-20T20:49:40.184Z,21.62
2019-04-20T20:52:12.040Z,21.53
2019-04-20T20:54:33.579Z,21.47
2019-04-20T20:57:02.830Z,21.40
2019-04-20T20:59:34.771Z,21.33
2019-04-20T21:02:00.974Z,21.29
2019-04-20T21:04:21.758Z,21.24
2019-04-20T21:06:50.881Z,21.18
2019-04-20T21:09:20.651Z,21.13
2019-04-20T21:11:51.129Z,21.07
2019-04-20T21:14:22.171Z,21.03
2019-04-20T21:17:00.303Z,20.97
2019-04-20T21:19:34.287Z,20.91
2019-04-20T21:21:55.920Z,20.86
2019-04-20T21:24:30.300Z,20.80
2019-04-20T21:27:00.611Z,20.72
2019-04-20T21:29:35.565Z,20.62
2019-04-20T21:32:05.051Z,20.54
2019-04-20T21:34:29.118Z,20.49
2019-04-20T21:37:07.021Z,20.42
2019-04-20T21:39:38.283Z,20.37
2019-04-20T21:42:04.373Z,20.29
2019-04-20T21:44:34.798Z,20.21
2019-04-20T21:47:01.266Z,20.13
2019-04-20T21:49:42.307Z,20.03
2019-04-20T21:52:06.734Z,19.94
2019-04-20T21:54:32.009Z,19.85
2019-04-20T21:57:03.853Z,19.75
2019-04-20T21:59:36.268Z,19.62
2019-04-20T22:02:09.854Z,19.54
2019-04-20T22:04:31.298Z,19.48
2019-04-20T22:07:00.487Z,19.40
2019-04-20T22:09:34.412Z,19.34
2019-04-20T22:12:00.040Z,19.25
2019-04-20T22:14:32.286Z,19.15
2019-04-20T22:17:01.804Z,19.07
2019-04-20T22:19:41.161Z,18.98
2019-04-20T22:22:05.515Z,18.92
2019-04-20T22:24:45.466Z,18.86
2019-04-20T22:27:09.933Z,18.81
2019-04-20T22:29:32.268Z,18.75
2019-04-20T22:32:08.899Z,18.65
2019-04-20T22:34:33.690Z,18.59
2019-04-20T22:37:02.374Z,18.52
2019-04-20T22:39:39.678Z,18.46
2019-04-20T22:42:08.942Z,18.40
2019-04-20T22:44:36.429Z,18.34
2019-04-20T22:47:12.514Z,18.28
2019-04-20T22:49:48.209Z,18.20
2019-04-20T22:52:23.337Z,18.14
2019-04-20T22:54:49.396Z,18.08
2019-04-20T22:57:19.397Z,18.03
2019-04-20T22:59:44.708Z,17.95
2019-04-20T23:02:06.544Z,17.88
2019-04-20T23:04:35.077Z,17.81
2019-04-20T23:07:03.237Z,17.74
2019-04-20T23:09:34.211Z,17.69
2019-04-20T23:12:09.194Z,17.64
2019-04-20T23:14:32.141Z,17.58
2019-04-20T23:17:02.132Z,17.50
2019-04-20T23:19:38.193Z,17.44
2019-04-20T23:22:04.820Z,17.37
2019-04-20T23:24:31.060Z,17.29
2019-04-20T23:26:59.541Z,17.23
2019-04-20T23:29:32.669Z,17.16
2019-04-20T23:32:03.009Z,17.09
2019-04-20T23:34:31.011Z,17.03
2019-04-20T23:36:58.870Z,16.98
2019-04-20T23:39:34.248Z,16.92
2019-04-20T23:42:01.612Z,16.85
2019-04-20T23:44:45.917Z,16.79
2019-04-20T23:47:25.524Z,16.75
2019-04-20T23:50:12.292Z,16.68
2019-04-20T23:52:49.692Z,16.60
2019-04-20T23:55:04.338Z,16.51
2019-04-20T23:57:29.382Z,16.43
2019-04-20T23:59:58.175Z,16.32
